Time,TemperatureF,DewpointF,PressureIn,WindDirection,WindDirectionDegrees,WindSpeedMPH,WindSpeedGustMPH,Humidity,HourlyPrecipIn,Conditions,Clouds,dailyrainin,SoftwareType,DateUTC
2013-08-14 00:00:00,67.0,65.8,29.64,NNW,341,3.0,4.0,96,0.00,,,0.00,Wunderground v.1.15,2013-08-14 04:00:00,
2013-08-14 00:05:00,67.4,66.2,29.64,NNW,345,3.0,4.0,96,0.00,,,0.00,Wunderground v.1.15,2013-08-14 04:05:00,
2013-08-14 00:10:00,67.8,66.6,29.64,SSE,168,2.0,2.0,96,0.00,,,0.00,Wunderground v.1.15,2013-08-14 04:10:00,
2013-08-14 00:15:00,67.9,66.7,29.64,SW,224,2.0,2.0,96,0.00,,,0.00,Wunderground v.1.15,2013-08-14 04:15:00,
2013-08-14 00:20:00,68.1,66.9,29.64,SSW,208,2.0,2.0,96,0.00,,,0.00,Wunderground v.1.15,2013-08-14 04:20:00,
2013-08-14 00:30:00,68.2,67.0,29.63,SW,235,3.0,3.0,96,0.00,,,0.00,Wunderground v.1.15,2013-08-14 04:30:00,
2013-08-14 00:40:00,68.3,67.1,29.63,SW,220,3.0,3.0,96,0.00,,,0.00,Wunderground v.1.15,2013-08-14 04:40:00,
2013-08-14 00:50:00,68.3,67.1,29.63,SW,220,3.0,4.0,96,0.00,,,0.00,Wunderground v.1.15,2013-08-14 04:50:00,
2013-08-14 01:00:00,68.1,66.9,29.63,WNW,299,3.0,3.0,96,0.00,,,0.00,Wunderground v.1.15,2013-08-14 05:00:00,
2013-08-14 01:05:00,68.0,66.8,29.63,WNW,302,3.0,3.0,96,0.00,,,0.00,Wunderground v.1.15,2013-08-14 05:05:00,
2013-08-14 01:10:00,67.9,66.7,29.63,WNW,285,3.0,3.0,96,0.00,,,0.00,Wunderground v.1.15,2013-08-14 05:10:00,
2013-08-14 01:15:00,67.9,66.7,29.63,NNW,338,3.0,3.0,96,0.00,,,0.00,Wunderground v.1.15,2013-08-14 05:15:00,
2013-08-14 01:20:00,68.1,66.9,29.63,NW,326,3.0,3.0,96,0.00,,,0.00,Wunderground v.1.15,2013-08-14 05:20:00,
2013-08-14 01:30:00,68.3,67.1,29.63,NW,322,4.0,5.0,96,0.00,,,0.00,Wunderground v.1.15,2013-08-14 05:30:00,
2013-08-14 01:40:00,68.1,66.6,29.63,North,349,5.0,5.0,95,0.00,,,0.00,Wunderground v.1.15,2013-08-14 05:40:00,
2013-08-14 01:50:00,68.6,66.2,29.63,NNW,329,4.0,4.0,92,0.00,,,0.00,Wunderground v.1.15,2013-08-14 05:50:00,
2013-08-14 02:00:00,68.9,65.8,29.63,North,4,4.0,7.0,90,0.00,,,0.00,Wunderground v.1.15,2013-08-14 06:00:00,
2013-08-14 02:10:00,69.1,65.7,29.63,NNE,26,5.0,5.0,89,0.00,,,0.00,Wunderground v.1.15,2013-08-14 06:10:00,
2013-08-14 02:20:00,69.0,65.3,29.63,NNW,347,4.0,6.0,88,0.00,,,0.00,Wunderground v.1.15,2013-08-14 06:20:00,
2013-08-14 02:30:00,69.2,64.8,29.63,NNE,18,6.0,7.0,86,0.00,,,0.00,Wunderground v.1.15,2013-08-14 06:30:00,
2013-08-14 02:40:00,69.3,64.3,29.63,North,358,7.0,10.0,84,0.00,,,0.00,Wunderground v.1.15,2013-08-14 06:40:00,
2013-08-14 02:50:00,68.9,63.5,29.62,NNW,337,8.0,8.0,83,0.00,,,0.00,Wunderground v.1.15,2013-08-14 06:50:00,
2013-08-14 03:00:00,68.7,63.7,29.63,North,6,8.0,8.0,84,0.00,,,0.01,Wunderground v.1.15,2013-08-14 07:00:00,
2013-08-14 03:10:00,68.6,63.2,29.63,North,4,6.0,6.0,83,0.00,,,0.01,Wunderground v.1.15,2013-08-14 07:10:00,
2013-08-14 03:20:00,68.5,63.5,29.62,North,350,7.0,7.0,84,0.00,,,0.01,Wunderground v.1.15,2013-08-14 07:20:00,
2013-08-14 03:30:00,68.3,63.6,29.63,ENE,69,6.0,6.0,85,0.00,,,0.01,Wunderground v.1.15,2013-08-14 07:30:00,
2013-08-14 03:40:00,67.7,63.0,29.63,WNW,284,5.0,5.0,85,0.00,,,0.01,Wunderground v.1.15,2013-08-14 07:40:00,
2013-08-14 03:50:00,67.5,62.8,29.63,NNE,31,4.0,10.0,85,0.00,,,0.01,Wunderground v.1.15,2013-08-14 07:50:00,
2013-08-14 04:00:00,67.3,62.3,29.63,NNE,25,5.0,9.0,84,0.00,,,0.01,Wunderground v.1.15,2013-08-14 08:00:00,
2013-08-14 04:10:00,66.8,61.8,29.63,ESE,122,4.0,4.0,84,0.00,,,0.01,Wunderground v.1.15,2013-08-14 08:10:00,
2013-08-14 04:20:00,66.2,60.5,29.63,South,179,4.0,4.0,82,0.00,,,0.01,Wunderground v.1.15,2013-08-14 08:20:00,
2013-08-14 04:30:00,65.9,60.2,29.63,WNW,286,5.0,5.0,82,0.00,,,0.01,Wunderground v.1.15,2013-08-14 08:30:00,
2013-08-14 04:40:00,65.6,60.0,29.63,South,174,4.0,4.0,82,0.00,,,0.01,Wunderground v.1.15,2013-08-14 08:40:00,
2013-08-14 04:50:00,65.5,59.9,29.65,NW,323,4.0,5.0,82,0.00,,,0.01,Wunderground v.1.15,2013-08-14 08:50:00,
2013-08-14 05:00:00,65.1,59.5,29.65,NE,50,3.0,4.0,82,0.00,,,0.01,Wunderground v.1.15,2013-08-14 09:00:00,
2013-08-14 05:10:00,64.9,59.3,29.65,ESE,102,3.0,3.0,82,0.00,,,0.01,Wunderground v.1.15,2013-08-14 09:10:00,
2013-08-14 05:20:00,65.0,59.7,29.66,ENE,73,3.0,3.0,83,0.00,,,0.01,Wunderground v.1.15,2013-08-14 09:20:00,
2013-08-14 05:30:00,64.7,58.7,29.66,NNE,23,3.0,3.0,81,0.00,,,0.01,Wunderground v.1.15,2013-08-14 09:30:00,
2013-08-14 05:40:00,64.6,57.6,29.66,NNW,337,6.0,11.0,78,0.00,,,0.01,Wunderground v.1.15,2013-08-14 09:40:00,
2013-08-14 05:50:00,64.3,56.9,29.67,NNE,20,7.0,10.0,77,0.00,,,0.01,Wunderground v.1.15,2013-08-14 09:50:00,
2013-08-14 06:00:00,64.3,57.3,29.68,WNW,284,7.0,10.0,78,0.00,,,0.01,Wunderground v.1.15,2013-08-14 10:00:00,
2013-08-14 06:10:00,64.2,57.2,29.68,NNW,329,6.0,6.0,78,0.00,,,0.01,Wunderground v.1.15,2013-08-14 10:10:00,
2013-08-14 06:20:00,64.1,56.7,29.68,NNW,341,5.0,5.0,77,0.00,,,0.01,Wunderground v.1.15,2013-08-14 10:20:00,
2013-08-14 06:30:00,64.1,57.1,29.69,North,354,5.0,5.0,78,0.00,,,0.01,Wunderground v.1.15,2013-08-14 10:30:00,
2013-08-14 06:40:00,63.9,56.9,29.69,North,352,6.0,6.0,78,0.00,,,0.01,Wunderground v.1.15,2013-08-14 10:40:00,
2013-08-14 06:50:00,63.8,56.8,29.69,NNW,343,6.0,6.0,78,0.00,,,0.01,Wunderground v.1.15,2013-08-14 10:50:00,
2013-08-14 07:00:00,63.8,57.2,29.70,NNE,14,4.0,5.0,79,0.00,,,0.01,Wunderground v.1.15,2013-08-14 11:00:00,
2013-08-14 07:10:00,63.7,56.7,29.70,North,8,7.0,7.0,78,0.00,,,0.01,Wunderground v.1.15,2013-08-14 11:10:00,
2013-08-14 07:20:00,63.7,56.4,29.70,NNE,31,8.0,11.0,77,0.00,,,0.01,Wunderground v.1.15,2013-08-14 11:20:00,
2013-08-14 07:30:00,63.4,56.8,29.70,NE,54,8.0,8.0,79,0.00,,,0.01,Wunderground v.1.15,2013-08-14 11:30:00,
2013-08-14 07:40:00,63.4,56.8,29.70,North,355,6.0,9.0,79,0.00,,,0.01,Wunderground v.1.15,2013-08-14 11:40:00,
2013-08-14 07:50:00,63.7,57.1,29.71,NNW,338,6.0,10.0,79,0.00,,,0.01,Wunderground v.1.15,2013-08-14 11:50:00,
2013-08-14 08:00:00,63.5,55.4,29.71,NNE,23,7.0,10.0,75,0.00,,,0.01,Wunderground v.1.15,2013-08-14 12:00:00,
2013-08-14 08:10:00,63.4,55.7,29.71,NNE,14,6.0,10.0,76,0.00,,,0.01,Wunderground v.1.15,2013-08-14 12:10:00,
2013-08-14 08:20:00,63.5,56.2,29.71,NW,322,6.0,6.0,77,0.00,,,0.01,Wunderground v.1.15,2013-08-14 12:20:00,
2013-08-14 08:30:00,63.3,55.2,29.71,NNE,14,6.0,9.0,75,0.00,,,0.01,Wunderground v.1.15,2013-08-14 12:30:00,
2013-08-14 08:40:00,63.5,56.2,29.71,NNE,27,6.0,6.0,77,0.00,,,0.01,Wunderground v.1.15,2013-08-14 12:40:00,
2013-08-14 08:50:00,63.5,56.2,29.71,NE,43,7.0,7.0,77,0.00,,,0.01,Wunderground v.1.15,2013-08-14 12:50:00,
2013-08-14 09:00:00,63.0,55.7,29.71,NNW,347,6.0,6.0,77,0.00,,,0.01,Wunderground v.1.15,2013-08-14 13:00:00,
2013-08-14 09:10:00,63.4,56.1,29.71,NNE,19,6.0,7.0,77,0.00,,,0.01,Wunderground v.1.15,2013-08-14 13:10:00,
2013-08-14 09:20:00,63.4,56.1,29.70,North,2,6.0,6.0,77,0.00,,,0.01,Wunderground v.1.15,2013-08-14 13:20:00,
2013-08-14 09:30:00,63.2,55.9,29.71,NNW,335,5.0,5.0,77,0.00,,,0.01,Wunderground v.1.15,2013-08-14 13:30:00,
2013-08-14 09:40:00,63.3,55.6,29.71,NE,44,5.0,9.0,76,0.00,,,0.01,Wunderground v.1.15,2013-08-14 13:40:00,
2013-08-14 09:50:00,63.8,56.4,29.71,West,277,5.0,5.0,77,0.00,,,0.01,Wunderground v.1.15,2013-08-14 13:50:00,
2013-08-14 10:00:00,64.1,56.0,29.71,WNW,289,5.0,6.0,75,0.00,,,0.01,Wunderground v.1.15,2013-08-14 14:00:00,
2013-08-14 10:10:00,64.2,56.5,29.71,NNW,345,5.0,5.0,76,0.00,,,0.01,Wunderground v.1.15,2013-08-14 14:10:00,
2013-08-14 10:20:00,64.3,55.5,29.72,North,350,6.0,6.0,73,0.00,,,0.01,Wunderground v.1.15,2013-08-14 14:20:00,
2013-08-14 10:30:00,64.3,55.1,29.72,NNE,18,5.0,7.0,72,0.00,,,0.01,Wunderground v.1.15,2013-08-14 14:30:00,
2013-08-14 10:40:00,64.4,55.2,29.72,WNW,285,5.0,5.0,72,0.00,,,0.01,Wunderground v.1.15,2013-08-14 14:40:00,
2013-08-14 10:50:00,64.6,55.0,29.72,NW,310,5.0,7.0,71,0.00,,,0.01,Wunderground v.1.15,2013-08-14 14:50:00,
2013-08-14 11:00:00,64.7,55.1,29.72,NW,309,6.0,8.0,71,0.00,,,0.01,Wunderground v.1.15,2013-08-14 15:00:00,
2013-08-14 11:10:00,64.9,54.9,29.72,North,1,7.0,7.0,70,0.00,,,0.01,Wunderground v.1.15,2013-08-14 15:10:00,
2013-08-14 11:20:00,65.1,55.1,29.72,North,356,6.0,6.0,70,0.00,,,0.01,Wunderground v.1.15,2013-08-14 15:20:00,
2013-08-14 11:30:00,65.4,54.2,29.73,NNE,24,5.0,10.0,67,0.00,,,0.01,Wunderground v.1.15,2013-08-14 15:30:00,
2013-08-14 11:40:00,65.6,55.5,29.73,NNW,329,4.0,7.0,70,0.00,,,0.01,Wunderground v.1.15,2013-08-14 15:40:00,
2013-08-14 11:50:00,66.1,55.6,29.73,NNW,337,4.0,5.0,69,0.00,,,0.01,Wunderground v.1.15,2013-08-14 15:50:00,
2013-08-14 12:00:00,66.5,54.8,29.74,West,260,4.0,4.0,66,0.00,,,0.01,Wunderground v.1.15,2013-08-14 16:00:00,
2013-08-14 12:10:00,66.7,55.0,29.74,North,358,4.0,4.0,66,0.00,,,0.01,Wunderground v.1.15,2013-08-14 16:10:00,
2013-08-14 12:20:00,66.9,54.7,29.74,North,349,4.0,4.0,65,0.00,,,0.01,Wunderground v.1.15,2013-08-14 16:20:00,
2013-08-14 12:30:00,67.1,55.8,29.73,NW,318,4.0,5.0,67,0.00,,,0.01,Wunderground v.1.15,2013-08-14 16:30:00,
2013-08-14 12:40:00,67.5,55.7,29.73,WNW,299,5.0,5.0,66,0.00,,,0.01,Wunderground v.1.15,2013-08-14 16:40:00,
2013-08-14 13:00:00,68.3,55.2,29.74,NNE,15,5.0,5.0,63,0.00,,,0.01,Wunderground v.1.15,2013-08-14 17:00:00,
2013-08-14 13:10:00,68.5,55.4,29.74,North,4,6.0,6.0,63,0.00,,,0.01,Wunderground v.1.15,2013-08-14 17:10:00,
2013-08-14 13:20:00,68.6,55.9,29.74,NW,322,6.0,6.0,64,0.00,,,0.01,Wunderground v.1.15,2013-08-14 17:20:00,
2013-08-14 13:30:00,68.9,55.8,29.73,NW,314,6.0,6.0,63,0.00,,,0.01,Wunderground v.1.15,2013-08-14 17:30:00,
2013-08-14 13:40:00,69.0,55.4,29.73,NNW,344,7.0,7.0,62,0.00,,,0.01,Wunderground v.1.15,2013-08-14 17:40:00,
2013-08-14 13:55:00,69.5,55.5,29.74,NNE,30,5.0,10.0,61,0.00,,,0.01,Wunderground v.1.15,2013-08-14 17:55:00,
2013-08-14 14:00:00,69.9,55.8,29.73,WNW,300,6.0,6.0,61,0.00,,,0.01,Wunderground v.1.15,2013-08-14 18:00:00,
2013-08-14 14:15:00,69.5,55.0,29.74,West,278,6.0,10.0,60,0.00,,,0.01,Wunderground v.1.15,2013-08-14 18:15:00,
2013-08-14 14:20:00,69.5,55.0,29.74,WSW,242,7.0,7.0,60,0.00,,,0.01,Wunderground v.1.15,2013-08-14 18:20:00,
2013-08-14 14:35:00,69.6,55.1,29.74,WNW,295,7.0,8.0,60,0.00,,,0.01,Wunderground v.1.15,2013-08-14 18:35:00,
2013-08-14 14:40:00,69.7,54.7,29.74,WNW,301,7.0,10.0,59,0.00,,,0.01,Wunderground v.1.15,2013-08-14 18:40:00,
2013-08-14 14:50:00,70.3,54.8,29.74,NE,48,7.0,7.0,58,0.00,,,0.01,Wunderground v.1.15,2013-08-14 18:50:00,
2013-08-14 15:00:00,70.1,55.1,29.74,ENE,58,7.0,7.0,59,0.00,,,0.01,Wunderground v.1.15,2013-08-14 19:00:00,
2013-08-14 15:15:00,70.7,55.7,29.73,SE,126,6.0,6.0,59,0.00,,,0.01,Wunderground v.1.15,2013-08-14 19:15:00,
2013-08-14 15:20:00,70.7,55.7,29.73,ESE,117,7.0,7.0,59,0.00,,,0.01,Wunderground v.1.15,2013-08-14 19:20:00,
2013-08-14 15:35:00,70.4,55.4,29.73,North,10,7.0,9.0,59,0.00,,,0.01,Wunderground v.1.15,2013-08-14 19:35:00,
2013-08-14 15:40:00,70.6,56.5,29.73,NNW,347,7.0,7.0,61,0.00,,,0.01,Wunderground v.1.15,2013-08-14 19:40:00,
2013-08-14 15:50:00,70.7,55.7,29.73,NW,318,7.0,7.0,59,0.00,,,0.01,Wunderground v.1.15,2013-08-14 19:50:00,
2013-08-14 16:00:00,70.7,55.7,29.73,WSW,250,8.0,9.0,59,0.00,,,0.01,Wunderground v.1.15,2013-08-14 20:00:00,
2013-08-14 16:10:00,71.0,55.0,29.73,NNW,330,8.0,8.0,57,0.00,,,0.01,Wunderground v.1.15,2013-08-14 20:10:00,
2013-08-14 16:25:00,71.2,56.1,29.73,NNW,340,8.0,8.0,59,0.00,,,0.01,Wunderground v.1.15,2013-08-14 20:25:00,
2013-08-14 16:40:00,71.2,55.2,29.74,North,357,8.0,9.0,57,0.00,,,0.01,Wunderground v.1.15,2013-08-14 20:40:00,
2013-08-14 16:50:00,71.6,56.5,29.74,North,355,8.0,8.0,59,0.00,,,0.01,Wunderground v.1.15,2013-08-14 20:50:00,
2013-08-14 17:05:00,71.6,56.5,29.75,North,356,7.0,10.0,59,0.00,,,0.01,Wunderground v.1.15,2013-08-14 21:05:00,
2013-08-14 17:10:00,71.6,55.1,29.75,North,354,7.0,7.0,56,0.00,,,0.01,Wunderground v.1.15,2013-08-14 21:10:00,
2013-08-14 17:20:00,71.5,56.4,29.75,North,351,8.0,10.0,59,0.00,,,0.01,Wunderground v.1.15,2013-08-14 21:20:00,
2013-08-14 17:30:00,71.5,56.9,29.75,NW,320,8.0,8.0,60,0.00,,,0.01,Wunderground v.1.15,2013-08-14 21:30:00,
2013-08-14 17:40:00,71.4,54.9,29.76,West,260,9.0,9.0,56,0.00,,,0.01,Wunderground v.1.15,2013-08-14 21:40:00,
2013-08-14 17:50:00,71.2,55.7,29.76,North,360,10.0,10.0,58,0.00,,,0.01,Wunderground v.1.15,2013-08-14 21:50:00,
2013-08-14 18:05:00,71.2,55.7,29.76,NW,322,11.0,11.0,58,0.00,,,0.01,Wunderground v.1.15,2013-08-14 22:05:00,
2013-08-14 18:10:00,71.1,55.1,29.76,North,10,11.0,13.0,57,0.00,,,0.01,Wunderground v.1.15,2013-08-14 22:10:00,
2013-08-14 18:20:00,71.2,56.1,29.76,NNW,329,10.0,13.0,59,0.00,,,0.01,Wunderground v.1.15,2013-08-14 22:20:00,
2013-08-14 18:30:00,71.1,56.0,29.77,North,360,11.0,11.0,59,0.00,,,0.01,Wunderground v.1.15,2013-08-14 22:30:00,
2013-08-14 18:40:00,71.1,57.0,29.77,NW,317,9.0,9.0,61,0.00,,,0.01,Wunderground v.1.15,2013-08-14 22:40:00,
2013-08-14 18:50:00,71.1,56.0,29.77,North,9,10.0,10.0,59,0.00,,,0.01,Wunderground v.1.15,2013-08-14 22:50:00,
2013-08-14 19:00:00,70.9,57.2,29.78,WNW,300,8.0,8.0,62,0.00,,,0.01,Wunderground v.1.15,2013-08-14 23:00:00,
2013-08-14 19:10:00,71.0,58.2,29.78,North,8,8.0,9.0,64,0.00,,,0.01,Wunderground v.1.15,2013-08-14 23:10:00,
2013-08-14 19:20:00,70.8,56.7,29.79,North,4,10.0,16.0,61,0.00,,,0.01,Wunderground v.1.15,2013-08-14 23:20:00,
2013-08-14 19:30:00,70.8,54.8,29.79,NW,326,11.0,12.0,57,0.00,,,0.01,Wunderground v.1.15,2013-08-14 23:30:00,
2013-08-14 19:40:00,70.6,54.6,29.79,North,354,13.0,16.0,57,0.00,,,0.01,Wunderground v.1.15,2013-08-14 23:40:00,
2013-08-14 19:50:00,70.5,55.0,29.79,North,11,13.0,16.0,58,0.00,,,0.01,Wunderground v.1.15,2013-08-14 23:50:00,
2013-08-14 20:00:00,70.3,54.8,29.80,North,4,12.0,12.0,58,0.00,,,0.01,Wunderground v.1.15,2013-08-15 00:00:00,
2013-08-14 20:10:00,70.1,56.0,29.80,North,10,12.0,12.0,61,0.00,,,0.01,Wunderground v.1.15,2013-08-15 00:10:00,
2013-08-14 20:20:00,70.0,55.0,29.82,NNE,23,11.0,11.0,59,0.00,,,0.01,Wunderground v.1.15,2013-08-15 00:20:00,
2013-08-14 20:30:00,69.9,54.9,29.82,NNW,344,11.0,16.0,59,0.00,,,0.01,Wunderground v.1.15,2013-08-15 00:30:00,
2013-08-14 20:40:00,69.8,54.8,29.82,NNW,339,11.0,12.0,59,0.00,,,0.01,Wunderground v.1.15,2013-08-15 00:40:00,
2013-08-14 20:50:00,69.7,55.2,29.83,NNE,25,9.0,9.0,60,0.00,,,0.01,Wunderground v.1.15,2013-08-15 00:50:00,
2013-08-14 21:00:00,69.5,56.3,29.85,NNW,333,7.0,7.0,63,0.00,,,0.01,Wunderground v.1.15,2013-08-15 01:00:00,
2013-08-14 21:10:00,69.4,54.9,29.85,North,350,7.0,13.0,60,0.00,,,0.01,Wunderground v.1.15,2013-08-15 01:10:00,
2013-08-14 21:20:00,69.3,55.7,29.85,WNW,302,10.0,11.0,62,0.00,,,0.01,Wunderground v.1.15,2013-08-15 01:20:00,
2013-08-14 21:30:00,69.1,56.8,29.86,NNW,338,11.0,11.0,65,0.00,,,0.01,Wunderground v.1.15,2013-08-15 01:30:00,
2013-08-14 21:40:00,68.8,54.8,29.87,NNE,17,11.0,11.0,61,0.00,,,0.01,Wunderground v.1.15,2013-08-15 01:40:00,
2013-08-14 21:50:00,68.6,55.1,29.87,North,351,9.0,10.0,62,0.00,,,0.01,Wunderground v.1.15,2013-08-15 01:50:00,
2013-08-14 22:00:00,68.5,56.3,29.88,North,358,7.0,9.0,65,0.00,,,0.01,Wunderground v.1.15,2013-08-15 02:00:00,
2013-08-14 22:10:00,68.3,55.6,29.88,NNE,15,9.0,11.0,64,0.00,,,0.01,Wunderground v.1.15,2013-08-15 02:10:00,
2013-08-14 22:20:00,68.0,55.4,29.88,NNW,337,10.0,10.0,64,0.00,,,0.01,Wunderground v.1.15,2013-08-15 02:20:00,
2013-08-14 22:30:00,67.9,54.4,29.89,East,81,11.0,11.0,62,0.00,,,0.01,Wunderground v.1.15,2013-08-15 02:30:00,
2013-08-14 22:40:00,67.7,54.6,29.89,North,356,11.0,11.0,63,0.00,,,0.01,Wunderground v.1.15,2013-08-15 02:40:00,
2013-08-14 22:50:00,67.4,54.8,29.89,NE,41,10.0,10.0,64,0.00,,,0.01,Wunderground v.1.15,2013-08-15 02:50:00,
2013-08-14 23:00:00,67.1,54.9,29.89,NNW,347,11.0,12.0,65,0.00,,,0.01,Wunderground v.1.15,2013-08-15 03:00:00,
2013-08-14 23:10:00,67.0,55.7,29.89,North,10,10.0,10.0,67,0.00,,,0.01,Wunderground v.1.15,2013-08-15 03:10:00,
2013-08-14 23:20:00,66.8,55.1,29.90,NNE,25,10.0,10.0,66,0.00,,,0.01,Wunderground v.1.15,2013-08-15 03:20:00,
2013-08-14 23:30:00,66.6,54.5,29.90,NNE,29,8.0,8.0,65,0.00,,,0.01,Wunderground v.1.15,2013-08-15 03:30:00,
2013-08-14 23:40:00,66.5,54.8,29.90,North,3,8.0,9.0,66,0.00,,,0.01,Wunderground v.1.15,2013-08-15 03:40:00,
2013-08-14 23:50:00,66.3,55.0,29.91,NNE,21,10.0,14.0,67,0.00,,,0.01,Wunderground v.1.15,2013-08-15 03:50:00,